Time;durP1;ratioP1;P1;durP2;ratioP2;P2;SDS_P1;SDS_P2;PMS_P1;PMS_P2;Temp;Humidity;BMP_temperature;BMP_pressure;BME280_temperature;BME280_humidity;BME280_pressure;Samples;Min_cycle;Max_cycle;Signal;HPM_P1;HPM_P2
2023/03/23 00:01:50;;;;;;;;;;;;;;;6.30;77.94;94898.03;4994930;28;1114;-72
2023/03/23 00:04:18;;;;;;;;;;;;;;;6.30;77.82;94885.16;4995058;28;1481;-72
2023/03/23 00:06:46;;;;;;;;;;;;;;;6.30;78.15;94889.81;4994666;28;1276;-72
2023/03/23 00:09:14;;;;;;;;;;;;;;;6.23;77.74;94882.91;4995681;28;996;-70
2023/03/23 00:11:44;;;;;;;;;;;;;;;6.20;78.21;94882.78;4995050;28;1091;-72
2023/03/23 00:14:15;;;;;;;;;;;;;;;6.18;78.09;94883.13;4994517;28;1985;-71
2023/03/23 00:16:44;;;;;;;;;;;;;;;6.14;77.48;94886.84;4995025;28;1158;-71
2023/03/23 00:19:15;;;;;;;;;;;;;;;5.93;77.56;94887.56;4994437;28;1338;-71
2023/03/23 00:21:42;;;;;;;;;;;;;;;5.93;78.06;94882.09;4994850;28;1301;-72
2023/03/23 00:24:11;;;;;;;;;;;;;;;5.98;78.25;94884.63;4994617;28;1083;-72
2023/03/23 00:26:43;;;;;;;;;;;;;;;6.01;78.51;94888.66;4995410;28;1294;-72
2023/03/23 00:29:14;;;;;;;;;;;;;;;6.01;78.15;94889.47;4998101;28;1177;-71
2023/03/23 00:31:46;;;;;;;;;;;;;;;6.02;77.84;94890.25;4998239;28;1474;-72
2023/03/23 00:34:19;;;;;;;;;;;;;;;6.00;78.22;94890.59;4998158;28;1981;-72
2023/03/23 00:36:48;;;;;;;;;;;;;;;5.96;77.71;94895.13;4998421;28;1161;-72
2023/03/23 00:39:19;;;;;;;;;;;;;;;5.79;77.07;94895.94;4998030;28;1129;-72
2023/03/23 00:41:48;;;;;;;;;;;;;;;5.60;76.83;94897.47;4998497;28;1227;-73
2023/03/23 00:44:16;;;;;;;;;;;;;;;5.49;77.05;94902.47;4998163;28;1130;-73
2023/03/23 00:46:50;;;;;;;;;;;;;;;5.40;77.64;94902.47;4998483;28;1149;-73
2023/03/23 00:49:19;;;;;;;;;;;;;;;5.43;78.01;94904.56;4997771;28;1116;-73
2023/03/23 00:51:47;;;;;;;;;;;;;;;5.52;77.91;94902.63;4997995;28;1316;-73
2023/03/23 00:54:15;;;;;;;;;;;;;;;5.63;78.17;94908.56;4998801;28;1906;-74
2023/03/23 00:56:46;;;;;;;;;;;;;;;5.71;78.06;94901.44;4997900;28;1300;-74
2023/03/23 00:59:14;;;;;;;;;;;;;;;5.79;78.31;94908.84;4997597;28;1506;-74
2023/03/23 01:01:44;;;;;;;;;;;;;;;5.79;78.09;94917.03;4998052;28;1208;-74
2023/03/23 01:04:16;;;;;;;;;;;;;;;5.70;77.77;94913.50;4997350;28;1332;-74
2023/03/23 01:06:50;;;;;;;;;;;;;;;5.57;77.85;94912.59;4997673;28;1210;-74
2023/03/23 01:09:19;;;;;;;;;;;;;;;5.53;78.52;94914.38;4997311;28;1333;-73
2023/03/23 01:11:47;;;;;;;;;;;;;;;5.48;78.90;94920.81;4998057;28;1069;-74
2023/03/23 01:14:18;;;;;;;;;;;;;;;5.55;78.79;94917.56;4997672;28;1902;-73
2023/03/23 01:16:46;;;;;;;;;;;;;;;5.63;79.14;94915.94;4997391;28;1172;-74
2023/03/23 01:19:17;;;;;;;;;;;;;;;5.67;79.17;94919.66;4997619;28;1168;-73
2023/03/23 01:21:47;;;;;;;;;;;;;;;5.75;79.10;94914.16;4996885;28;1130;-73
2023/03/23 01:24:15;;;;;;;;;;;;;;;5.82;79.17;94915.59;4997069;28;1270;-73
2023/03/23 01:26:46;;;;;;;;;;;;;;;5.87;78.85;94918.16;4997456;28;1099;-73
2023/03/23 01:29:14;;;;;;;;;;;;;;;5.90;78.76;94912.81;4997238;28;1176;-73
2023/03/23 01:31:42;;;;;;;;;;;;;;;5.91;78.92;94913.63;4996947;28;1241;-73
2023/03/23 01:34:11;;;;;;;;;;;;;;;5.92;78.90;94907.88;4997141;28;1906;-73
2023/03/23 01:36:43;;;;;;;;;;;;;;;5.94;79.16;94907.53;4996894;28;1111;-73
2023/03/23 01:39:11;;;;;;;;;;;;;;;5.96;78.95;94908.00;4996644;28;1415;-73
2023/03/23 01:41:40;;;;;;;;;;;;;;;5.93;78.40;94906.72;4997187;28;1161;-73
2023/03/23 01:44:08;;;;;;;;;;;;;;;5.89;78.70;94899.47;4997191;28;1204;-73
2023/03/23 01:46:35;;;;;;;;;;;;;;;5.89;78.96;94902.22;4996972;28;1540;-73
2023/03/23 01:49:06;;;;;;;;;;;;;;;5.88;78.93;94895.09;4996765;28;1215;-73
2023/03/23 01:51:36;;;;;;;;;;;;;;;5.87;79.19;94891.56;4996811;28;1157;-73
2023/03/23 01:54:10;;;;;;;;;;;;;;;5.92;79.58;94898.78;4996807;28;1125;-73
2023/03/23 01:56:40;;;;;;;;;;;;;;;5.96;79.06;94895.13;4996770;28;1211;-74
2023/03/23 01:59:08;;;;;;;;;;;;;;;5.91;79.06;94886.25;4996496;28;1166;-73
2023/03/23 02:01:38;;;;;;;;;;;;;;;5.89;79.33;94885.78;4996369;28;1199;-73
2023/03/23 02:04:08;;;;;;;;;;;;;;;5.85;79.63;94891.13;4996365;28;1236;-73
2023/03/23 02:06:36;;;;;;;;;;;;;;;5.83;79.44;94885.16;4996764;28;1252;-72
2023/03/23 02:09:06;;;;;;;;;;;;;;;5.68;79.01;94893.88;4996372;28;1196;-72
2023/03/23 02:11:34;;;;;;;;;;;;;;;5.51;78.87;94892.00;4996197;28;1178;-72
2023/03/23 02:14:04;;;;;;;;;;;;;;;5.50;79.14;94895.84;4996102;28;1171;-72
2023/03/23 02:16:39;;;;;;;;;;;;;;;5.48;79.36;94890.72;4996210;28;1983;-72
2023/03/23 02:19:27;;;;;;;;;;;;;;;5.54;79.30;94883.94;4996035;28;1086;-73
2023/03/23 02:22:06;;;;;;;;;;;;;;;5.59;79.86;94891.16;4996717;28;1200;-73
2023/03/23 02:24:54;;;;;;;;;;;;;;;5.69;80.16;94888.09;4996278;28;1306;-73
2023/03/23 02:27:32;;;;;;;;;;;;;;;5.80;80.01;94889.34;4996138;28;1184;-73
2023/03/23 02:30:12;;;;;;;;;;;;;;;5.89;80.18;94894.00;4979779;28;1193;-73
2023/03/23 02:32:54;;;;;;;;;;;;;;;5.95;79.99;94884.47;4996696;28;1294;-73
2023/03/23 02:35:31;;;;;;;;;;;;;;;6.00;80.04;94884.31;4995792;28;1981;-73
2023/03/23 02:38:02;;;;;;;;;;;;;;;6.05;80.00;94891.53;4996136;28;1275;-73
2023/03/23 02:40:30;;;;;;;;;;;;;;;6.05;79.87;94886.06;4996206;28;1200;-73
2023/03/23 02:42:59;;;;;;;;;;;;;;;5.87;79.34;94883.34;4995196;28;1078;-73
2023/03/23 02:45:28;;;;;;;;;;;;;;;5.65;78.90;94892.59;4995603;28;1085;-73
2023/03/23 02:47:59;;;;;;;;;;;;;;;5.54;79.22;94892.13;4995679;28;1208;-73
2023/03/23 02:50:34;;;;;;;;;;;;;;;5.55;79.70;94890.19;4995779;28;1231;-73
2023/03/23 02:53:05;;;;;;;;;;;;;;;5.57;80.08;94896.16;4995426;28;1124;-73
2023/03/23 02:55:40;;;;;;;;;;;;;;;5.53;80.07;94897.94;4995191;28;1981;-73
2023/03/23 02:58:08;;;;;;;;;;;;;;;5.49;79.91;94897.00;4996264;28;1186;-72
2023/03/23 03:00:36;;;;;;;;;;;;;;;5.47;79.96;94901.97;4995580;28;1415;-72
2023/03/23 03:03:04;;;;;;;;;;;;;;;5.49;79.63;94905.19;5011871;28;1189;-73
2023/03/23 03:05:47;;;;;;;;;;;;;;;5.52;79.90;94913.56;4995315;28;1374;-73
2023/03/23 03:08:19;;;;;;;;;;;;;;;5.48;79.82;94909.88;5011598;28;1209;-73
2023/03/23 03:10:53;;;;;;;;;;;;;;;5.42;79.54;94918.56;4995484;28;1354;-73
2023/03/23 03:13:50;;;;;;;;;;;;;;;5.39;79.60;94922.75;4995341;28;1226;-73
2023/03/23 03:16:21;;;;;;;;;;;;;;;5.33;79.46;94932.22;4995315;28;1983;-73
2023/03/23 03:18:53;;;;;;;;;;;;;;;5.32;80.24;94930.63;4995207;28;1109;-73
2023/03/23 03:21:25;;;;;;;;;;;;;;;5.38;80.55;94936.75;4994956;28;1135;-73
2023/03/23 03:24:00;;;;;;;;;;;;;;;5.43;80.40;94933.84;4995422;28;1086;-73
2023/03/23 03:26:30;;;;;;;;;;;;;;;5.41;80.17;94934.19;4995314;28;1225;-74
2023/03/23 03:28:59;;;;;;;;;;;;;;;5.39;80.43;94927.41;4994867;28;1342;-73
2023/03/23 03:31:27;;;;;;;;;;;;;;;5.41;80.44;94934.19;4995039;28;1075;-73
2023/03/23 03:33:57;;;;;;;;;;;;;;;5.43;80.15;94937.38;4995536;28;1058;-74
2023/03/23 03:36:26;;;;;;;;;;;;;;;5.46;80.33;94933.19;4995164;28;1985;-74
2023/03/23 03:38:59;;;;;;;;;;;;;;;5.48;80.22;94944.59;4994858;28;1319;-74
2023/03/23 03:41:26;;;;;;;;;;;;;;;5.48;80.31;94944.59;4994723;28;1207;-74
2023/03/23 03:43:56;;;;;;;;;;;;;;;5.49;80.66;94947.03;4996584;28;752;-74
2023/03/23 03:46:29;;;;;;;;;;;;;;;5.50;80.63;94945.09;4995130;28;1264;-74
2023/03/23 03:48:59;;;;;;;;;;;;;;;5.52;80.79;94940.13;4993639;28;1351;-74
2023/03/23 03:51:28;;;;;;;;;;;;;;;5.51;80.81;94942.03;4994882;28;1254;-73
2023/03/23 03:54:00;;;;;;;;;;;;;;;5.55;80.80;94943.00;4994618;28;1313;-73
2023/03/23 03:56:28;;;;;;;;;;;;;;;5.63;81.01;94935.91;4994944;28;1906;-73
2023/03/23 03:58:57;;;;;;;;;;;;;;;5.68;80.96;94932.19;4994732;28;1165;-73
2023/03/23 04:01:28;;;;;;;;;;;;;;;5.65;81.04;94927.38;4995083;28;1267;-74
2023/03/23 04:03:57;;;;;;;;;;;;;;;5.60;80.36;94927.56;4998841;28;1279;-76
2023/03/23 04:06:37;;;;;;;;;;;;;;;5.48;79.66;94928.19;4998938;28;1171;-74
2023/03/23 04:09:10;;;;;;;;;;;;;;;5.45;80.18;94928.88;4998861;28;1081;-74
2023/03/23 04:11:38;;;;;;;;;;;;;;;5.35;79.50;94927.25;4998523;28;1363;-74
2023/03/23 04:14:06;;;;;;;;;;;;;;;5.21;79.19;94935.63;4999116;28;1139;-73
2023/03/23 04:16:37;;;;;;;;;;;;;;;5.14;78.96;94927.09;4998811;28;1910;-74
2023/03/23 04:19:08;;;;;;;;;;;;;;;5.04;79.18;94935.59;4999095;28;1271;-74
2023/03/23 04:21:39;;;;;;;;;;;;;;;5.03;79.40;94929.34;4998859;28;1311;-74
2023/03/23 04:24:12;;;;;;;;;;;;;;;5.05;79.28;94938.03;4998894;28;1180;-74
2023/03/23 04:26:39;;;;;;;;;;;;;;;5.00;79.21;94938.19;4998449;28;1235;-75
2023/03/23 04:29:15;;;;;;;;;;;;;;;4.98;79.07;94940.44;4998023;28;1154;-75
2023/03/23 04:31:50;;;;;;;;;;;;;;;5.00;79.34;94937.38;4996133;28;1268;-75
2023/03/23 04:34:19;;;;;;;;;;;;;;;5.00;79.62;94938.19;4999021;28;1281;-75
2023/03/23 04:36:48;;;;;;;;;;;;;;;5.00;79.62;94940.91;4997992;28;1910;-75
2023/03/23 04:39:24;;;;;;;;;;;;;;;5.08;80.11;94944.78;4998175;28;1260;-75
2023/03/23 04:41:53;;;;;;;;;;;;;;;5.13;80.32;94932.91;4997881;28;1214;-75
2023/03/23 04:44:24;;;;;;;;;;;;;;;5.13;80.25;94943.84;4998600;28;1188;-75
2023/03/23 04:46:53;;;;;;;;;;;;;;;5.16;80.38;94945.94;4998194;28;1059;-75
2023/03/23 04:49:27;;;;;;;;;;;;;;;5.19;80.67;94951.56;4998113;28;1086;-75
2023/03/23 04:51:57;;;;;;;;;;;;;;;5.20;80.57;94949.63;4998020;28;1240;-75
2023/03/23 04:54:38;;;;;;;;;;;;;;;5.23;80.78;94954.47;4998340;28;1262;-75
2023/03/23 04:57:09;;;;;;;;;;;;;;;5.26;80.83;94956.53;4998100;28;1983;-75
2023/03/23 04:59:38;;;;;;;;;;;;;;;5.26;80.83;94960.06;4997363;28;1203;-75
2023/03/23 05:02:06;;;;;;;;;;;;;;;5.30;80.85;94954.75;4997863;28;1261;-75
2023/03/23 05:04:37;;;;;;;;;;;;;;;5.30;81.07;94957.47;4997948;28;1239;-75
2023/03/23 05:07:08;;;;;;;;;;;;;;;5.34;81.25;94958.47;4999081;28;889;-75
2023/03/23 05:09:37;;;;;;;;;;;;;;;5.33;80.66;94959.59;4998294;28;1340;-75
2023/03/23 05:12:10;;;;;;;;;;;;;;;5.17;79.37;94963.94;4997786;28;1097;-75
2023/03/23 05:14:44;;;;;;;;;;;;;;;5.04;79.50;94966.47;4997816;28;1521;-75
2023/03/23 05:17:12;;;;;;;;;;;;;;;5.02;80.04;94965.22;4997117;28;1970;-75
2023/03/23 05:19:41;;;;;;;;;;;;;;;5.06;80.38;94975.19;4997726;28;1295;-75
2023/03/23 05:22:14;;;;;;;;;;;;;;;5.04;80.32;94968.41;4995642;28;1220;-75
2023/03/23 05:24:45;;;;;;;;;;;;;;;5.12;80.62;94975.84;4996909;28;1167;-75
2023/03/23 05:27:12;;;;;;;;;;;;;;;5.15;80.90;94983.38;4997143;28;1231;-75
2023/03/23 05:29:41;;;;;;;;;;;;;;;5.24;81.32;94980.66;4997136;28;1294;-75
2023/03/23 05:32:10;;;;;;;;;;;;;;;5.30;81.34;94972.00;4997138;28;1212;-75
2023/03/23 05:34:42;;;;;;;;;;;;;;;5.35;81.73;94983.88;4996919;28;1087;-75
2023/03/23 05:37:11;;;;;;;;;;;;;;;5.38;81.16;94981.31;4997058;28;1967;-75
2023/03/23 05:39:39;;;;;;;;;;;;;;;5.41;81.21;94982.59;4997442;28;1140;-75
2023/03/23 05:42:09;;;;;;;;;;;;;;;5.38;81.14;94991.47;4997050;28;1211;-75
2023/03/23 05:44:42;;;;;;;;;;;;;;;5.42;81.18;94995.16;4997045;28;1141;-75
2023/03/23 05:47:12;;;;;;;;;;;;;;;5.45;81.33;94998.06;4996876;28;1166;-75
2023/03/23 05:49:41;;;;;;;;;;;;;;;5.47;81.01;94994.97;4997656;28;1280;-75
2023/03/23 05:52:08;;;;;;;;;;;;;;;5.48;80.91;95004.78;4997053;28;1088;-75
2023/03/23 05:54:37;;;;;;;;;;;;;;;5.49;80.58;95004.47;4997244;28;1201;-75
2023/03/23 05:57:05;;;;;;;;;;;;;;;5.51;80.56;95004.94;4996886;28;1987;-75
2023/03/23 05:59:38;;;;;;;;;;;;;;;5.50;80.49;95006.09;4996546;28;1286;-75
2023/03/23 06:02:06;;;;;;;;;;;;;;;5.52;81.03;95009.31;4996482;28;1242;-76
2023/03/23 06:04:35;;;;;;;;;;;;;;;5.54;80.58;95006.25;4996527;28;1338;-75
2023/03/23 06:07:05;;;;;;;;;;;;;;;5.60;80.72;95012.38;4980851;28;1144;-75
2023/03/23 06:09:31;;;;;;;;;;;;;;;5.64;80.94;95002.38;4996301;28;1279;-75
2023/03/23 06:12:02;;;;;;;;;;;;;;;5.80;81.06;95011.69;4997120;28;1330;-77
2023/03/23 06:14:30;;;;;;;;;;;;;;;5.89;80.30;95008.97;4997070;28;1296;-74
2023/03/23 06:17:05;;;;;;;;;;;;;;;5.96;80.31;95007.38;4996681;28;1915;-75
2023/03/23 06:19:37;;;;;;;;;;;;;;;6.07;80.00;95004.28;4996379;28;1085;-75
2023/03/23 06:22:05;;;;;;;;;;;;;;;6.15;79.92;95007.00;4996107;28;1372;-74
2023/03/23 06:24:34;;;;;;;;;;;;;;;6.20;80.04;95006.00;4995894;28;1393;-75
2023/03/23 06:27:01;;;;;;;;;;;;;;;6.22;79.47;95004.56;4997279;28;944;-75
2023/03/23 06:29:29;;;;;;;;;;;;;;;6.22;79.47;95004.56;4995935;28;1228;-74
2023/03/23 06:31:56;;;;;;;;;;;;;;;6.26;79.79;95000.03;4996220;28;1104;-74
2023/03/23 06:34:28;;;;;;;;;;;;;;;6.34;80.31;95003.06;4996455;28;1240;-74
2023/03/23 06:36:55;;;;;;;;;;;;;;;6.45;80.90;94996.09;4996307;28;1921;-74
2023/03/23 06:39:23;;;;;;;;;;;;;;;6.56;80.56;95002.03;4996220;28;1412;-74
2023/03/23 06:41:50;;;;;;;;;;;;;;;6.65;80.95;95011.03;4995877;28;1291;-74
2023/03/23 06:44:16;;;;;;;;;;;;;;;6.71;80.83;95007.75;4995816;28;1105;-75
2023/03/23 06:46:43;;;;;;;;;;;;;;;6.79;80.76;95014.34;4995854;28;1282;-74
2023/03/23 06:49:10;;;;;;;;;;;;;;;6.86;79.86;95014.63;4995698;28;1085;-75
2023/03/23 06:51:38;;;;;;;;;;;;;;;6.98;80.31;95019.41;4995560;28;1314;-73
2023/03/23 06:54:04;;;;;;;;;;;;;;;7.08;80.33;95024.50;4996265;28;1212;-73
2023/03/23 06:56:31;;;;;;;;;;;;;;;7.14;79.74;95016.88;4995429;28;1902;-74
2023/03/23 06:58:57;;;;;;;;;;;;;;;7.23;79.80;95020.41;4995480;28;1162;-74
2023/03/23 07:01:24;;;;;;;;;;;;;;;7.29;80.07;95023.72;4995461;28;1233;-74
2023/03/23 07:03:51;;;;;;;;;;;;;;;7.32;80.53;95021.13;4995153;28;1247;-74
2023/03/23 07:06:17;;;;;;;;;;;;;;;7.37;80.37;95025.59;4995426;28;1294;-74
2023/03/23 07:08:45;;;;;;;;;;;;;;;7.43;80.20;95027.03;4995122;28;1231;-74
2023/03/23 07:11:12;;;;;;;;;;;;;;;7.53;80.39;95018.41;4995120;28;1246;-74
2023/03/23 07:13:38;;;;;;;;;;;;;;;7.61;79.99;95016.72;4995414;28;1086;-74
2023/03/23 07:16:05;;;;;;;;;;;;;;;7.66;79.90;95024.75;4995606;28;1910;-74
2023/03/23 07:18:32;;;;;;;;;;;;;;;7.70;79.80;95017.47;4994991;28;1093;-73
2023/03/23 07:20:59;;;;;;;;;;;;;;;7.80;79.94;95024.47;4994939;28;1152;-74
2023/03/23 07:23:25;;;;;;;;;;;;;;;7.90;79.50;95022.13;4995284;28;1167;-74
2023/03/23 07:25:55;;;;;;;;;;;;;;;8.01;78.93;95022.50;4994914;28;1232;-74
2023/03/23 07:28:22;;;;;;;;;;;;;;;8.12;79.25;95028.38;4994997;28;1074;-74
2023/03/23 07:30:48;;;;;;;;;;;;;;;8.20;79.02;95028.28;4994752;28;1231;-74
2023/03/23 07:33:17;;;;;;;;;;;;;;;8.28;78.14;95028.53;4994675;28;1147;-74
2023/03/23 07:35:43;;;;;;;;;;;;;;;8.31;77.09;95025.13;4994689;28;1259;-74
2023/03/23 07:38:10;;;;;;;;;;;;;;;8.36;78.02;95022.16;4994328;28;1910;-74
2023/03/23 07:40:37;;;;;;;;;;;;;;;8.49;78.15;95032.06;4995156;28;1328;-74
2023/03/23 07:43:05;;;;;;;;;;;;;;;8.62;77.71;95021.91;4994974;28;1066;-74
2023/03/23 07:45:33;;;;;;;;;;;;;;;8.75;76.94;95023.53;4994552;28;1268;-74
2023/03/23 07:48:00;;;;;;;;;;;;;;;8.86;77.97;95035.69;4994921;28;1212;-74
2023/03/23 07:50:26;;;;;;;;;;;;;;;8.90;75.97;95030.31;4994703;28;1307;-74
2023/03/23 07:52:54;;;;;;;;;;;;;;;8.97;75.96;95033.28;4994701;28;1124;-74
2023/03/23 07:55:24;;;;;;;;;;;;;;;9.04;76.50;95038.19;4994741;28;1101;-74
2023/03/23 07:57:53;;;;;;;;;;;;;;;9.14;75.97;95033.03;5010963;28;1910;-74
2023/03/23 08:00:26;;;;;;;;;;;;;;;9.30;75.89;95029.59;4994309;28;1180;-74
2023/03/23 08:02:55;;;;;;;;;;;;;;;9.43;74.84;95036.69;4994977;28;1108;-74
2023/03/23 08:05:27;;;;;;;;;;;;;;;9.55;75.79;95031.19;4994606;28;1192;-74
2023/03/23 08:07:58;;;;;;;;;;;;;;;9.69;75.38;95028.03;4995193;28;1297;-74
2023/03/23 08:10:29;;;;;;;;;;;;;;;9.79;74.53;95035.81;4994813;28;1420;-74
2023/03/23 08:12:59;;;;;;;;;;;;;;;9.84;72.98;95041.09;4994532;28;1086;-74
2023/03/23 08:15:30;;;;;;;;;;;;;;;9.94;72.83;95039.78;4994507;28;1371;-74
2023/03/23 08:18:00;;;;;;;;;;;;;;;9.95;71.33;95038.66;4994575;28;1993;-74
2023/03/23 08:20:28;;;;;;;;;;;;;;;10.10;73.90;95034.34;4994886;28;1402;-73
2023/03/23 08:22:59;;;;;;;;;;;;;;;10.23;71.25;95035.09;4994727;28;1157;-73
2023/03/23 08:25:27;;;;;;;;;;;;;;;10.30;70.18;95029.78;4994492;28;1194;-74
2023/03/23 08:27:55;;;;;;;;;;;;;;;10.41;70.31;95033.63;4994943;28;1243;-74
2023/03/23 08:30:28;;;;;;;;;;;;;;;10.48;68.95;95028.31;4994429;28;1189;-74
2023/03/23 08:33:00;;;;;;;;;;;;;;;10.58;67.51;95024.25;4994577;28;1254;-74
2023/03/23 08:35:31;;;;;;;;;;;;;;;10.72;67.13;95026.59;4994692;28;1290;-73
2023/03/23 08:38:01;;;;;;;;;;;;;;;10.75;66.26;95023.13;4994417;28;1989;-73
2023/03/23 08:40:33;;;;;;;;;;;;;;;10.84;65.95;95026.50;4994894;28;1125;-73
2023/03/23 08:42:59;;;;;;;;;;;;;;;10.97;66.19;95025.25;4994058;28;1455;-75
2023/03/23 08:45:27;;;;;;;;;;;;;;;11.15;66.33;95028.47;4994181;28;1275;-73
2023/03/23 08:47:55;;;;;;;;;;;;;;;11.31;63.70;95022.91;4995120;28;1295;-73
2023/03/23 08:50:30;;;;;;;;;;;;;;;11.47;63.72;95025.63;4998264;28;1356;-73
2023/03/23 08:53:00;;;;;;;;;;;;;;;11.57;60.92;95033.38;4998042;28;1288;-73
2023/03/23 08:55:28;;;;;;;;;;;;;;;11.61;58.78;95027.91;4997976;28;1477;-76
2023/03/23 08:57:56;;;;;;;;;;;;;;;11.88;62.43;95027.00;4998012;28;1972;-76
2023/03/23 09:00:29;;;;;;;;;;;;;;;12.23;60.07;95026.09;4997447;28;1228;-75
2023/03/23 09:02:57;;;;;;;;;;;;;;;12.49;59.70;95029.03;4997564;28;1196;-75
2023/03/23 09:05:30;;;;;;;;;;;;;;;12.61;58.49;95025.28;4997493;28;1279;-75
2023/03/23 09:08:03;;;;;;;;;;;;;;;12.71;58.31;95013.63;4998255;28;1152;-75
2023/03/23 09:10:30;;;;;;;;;;;;;;;12.83;59.08;95018.16;4981259;28;1239;-74
2023/03/23 09:12:58;;;;;;;;;;;;;;;12.86;57.87;95022.16;4997405;28;1575;-74
2023/03/23 09:15:26;;;;;;;;;;;;;;;12.84;58.66;95022.53;4997011;28;1279;-74
2023/03/23 09:17:54;;;;;;;;;;;;;;;12.63;54.94;95019.38;4997636;28;1911;-74
2023/03/23 09:20:22;;;;;;;;;;;;;;;12.46;56.46;95013.16;4997471;28;1072;-74
2023/03/23 09:22:58;;;;;;;;;;;;;;;12.44;57.07;95018.22;4997699;28;1228;-74
2023/03/23 09:25:29;;;;;;;;;;;;;;;12.63;58.29;95019.38;4997433;28;1672;-74
2023/03/23 09:27:56;;;;;;;;;;;;;;;12.77;57.26;95016.84;4981109;28;1244;-74
2023/03/23 09:30:26;;;;;;;;;;;;;;;12.81;57.92;95003.88;4997245;28;1434;-74
2023/03/23 09:32:55;;;;;;;;;;;;;;;12.94;58.21;95013.63;4997358;28;1321;-74
2023/03/23 09:35:23;;;;;;;;;;;;;;;12.95;56.33;95001.34;4997202;28;1185;-74
2023/03/23 09:37:54;;;;;;;;;;;;;;;13.04;54.44;95005.88;4997541;28;1906;-74
2023/03/23 09:40:27;;;;;;;;;;;;;;;13.18;54.87;95004.13;4997139;28;1247;-74
2023/03/23 09:43:02;;;;;;;;;;;;;;;13.32;56.64;94997.22;4996858;28;1224;-74
2023/03/23 09:45:32;;;;;;;;;;;;;;;13.47;54.77;94999.03;4996897;28;1285;-74
2023/03/23 09:48:14;;;;;;;;;;;;;;;13.44;54.87;95002.59;4997335;28;1378;-74
2023/03/23 09:50:43;;;;;;;;;;;;;;;13.43;56.03;94992.66;4996517;28;1126;-74
2023/03/23 09:53:14;;;;;;;;;;;;;;;13.35;54.93;94994.50;4996828;28;1171;-74
2023/03/23 09:55:46;;;;;;;;;;;;;;;13.21;54.52;94986.75;4996652;28;1160;-74
2023/03/23 09:58:19;;;;;;;;;;;;;;;13.21;54.72;94994.25;4996466;28;1918;-74
2023/03/23 10:00:52;;;;;;;;;;;;;;;13.18;54.42;94990.28;4995299;28;1200;-73
2023/03/23 10:03:23;;;;;;;;;;;;;;;13.34;55.47;94989.34;4996175;28;1304;-73
2023/03/23 10:05:52;;;;;;;;;;;;;;;13.19;52.77;94991.88;4995936;28;1184;-73
2023/03/23 10:08:21;;;;;;;;;;;;;;;13.29;53.87;94986.88;4996903;28;1097;-73
2023/03/23 10:11:03;;;;;;;;;;;;;;;13.42;53.51;94983.53;4996681;28;1519;-73
2023/03/23 10:13:42;;;;;;;;;;;;;;;13.48;54.31;94984.81;4996675;28;1228;-73
2023/03/23 10:16:12;;;;;;;;;;;;;;;13.63;52.63;94985.81;4996414;28;1113;-73
2023/03/23 10:18:46;;;;;;;;;;;;;;;13.79;53.77;94984.84;4996411;28;1902;-73
2023/03/23 10:21:18;;;;;;;;;;;;;;;14.03;54.59;94978.84;4995925;28;1078;-73
2023/03/23 10:23:56;;;;;;;;;;;;;;;14.11;52.86;94982.50;4996715;28;1192;-73
2023/03/23 10:26:38;;;;;;;;;;;;;;;14.30;53.84;94979.53;4996515;28;1358;-73
2023/03/23 10:29:14;;;;;;;;;;;;;;;14.49;52.68;94975.81;4996126;28;1287;-73
2023/03/23 10:31:43;;;;;;;;;;;;;;;14.60;53.33;94970.41;4996409;28;1188;-74
2023/03/23 10:34:15;;;;;;;;;;;;;;;14.56;50.58;94980.63;4995838;28;1172;-73
2023/03/23 10:36:51;;;;;;;;;;;;;;;14.52;52.32;94972.28;4996085;28;1176;-73
2023/03/23 10:39:21;;;;;;;;;;;;;;;14.61;51.82;94972.78;4995578;28;1911;-73
2023/03/23 10:41:49;;;;;;;;;;;;;;;14.73;51.76;94973.69;4995994;28;1190;-73
2023/03/23 10:44:18;;;;;;;;;;;;;;;14.92;50.32;94976.22;4995816;28;1328;-73
2023/03/23 10:46:53;;;;;;;;;;;;;;;14.73;48.23;94980.03;4979327;28;1105;-73
2023/03/23 10:49:22;;;;;;;;;;;;;;;14.82;50.91;94961.09;4995962;28;1160;-73
2023/03/23 10:51:55;;;;;;;;;;;;;;;14.89;48.16;94960.34;4995946;28;1405;-73
2023/03/23 10:54:41;;;;;;;;;;;;;;;14.36;48.36;94963.38;4995825;28;1160;-73
2023/03/23 10:57:26;;;;;;;;;;;;;;;14.23;50.78;94964.78;4995568;28;1914;-73
2023/03/23 11:00:06;;;;;;;;;;;;;;;14.55;51.66;94962.41;4995426;28;1268;-73
2023/03/23 11:02:35;;;;;;;;;;;;;;;14.84;50.22;94960.69;4995650;28;1183;-73
2023/03/23 11:05:14;;;;;;;;;;;;;;;14.92;51.58;94960.41;4995452;28;1227;-73
2023/03/23 11:07:45;;;;;;;;;;;;;;;15.05;49.59;94960.88;4995296;28;1032;-75
2023/03/23 11:10:23;;;;;;;;;;;;;;;15.02;48.19;94958.88;4994608;28;1283;-71
2023/03/23 11:12:50;;;;;;;;;;;;;;;15.32;47.71;94950.38;4995608;28;1182;-77
2023/03/23 11:15:39;;;;;;;;;;;;;;;15.74;47.43;94948.28;4995423;28;1199;-76
2023/03/23 11:18:10;;;;;;;;;;;;;;;15.92;46.39;94940.03;4988868;28;1910;-75
2023/03/23 11:20:39;;;;;;;;;;;;;;;15.55;46.65;94944.56;4995970;28;1220;-76
2023/03/23 11:23:16;;;;;;;;;;;;;;;15.48;47.19;94940.97;4995112;28;1225;-73
2023/03/23 11:26:07;;;;;;;;;;;;;;;15.56;45.69;94951.72;4995149;28;1224;-73
2023/03/23 11:28:35;;;;;;;;;;;;;;;15.77;46.24;94947.50;4995587;28;1286;-74
2023/03/23 11:31:04;;;;;;;;;;;;;;;16.03;49.91;94929.75;4995640;28;1085;-73
2023/03/23 11:33:39;;;;;;;;;;;;;;;16.34;47.26;94931.06;4994723;28;1124;-73
2023/03/23 11:36:10;;;;;;;;;;;;;;;16.72;46.63;94929.53;4994837;28;1078;-74
2023/03/23 11:38:40;;;;;;;;;;;;;;;17.00;46.79;94928.78;4995252;28;1988;-74
2023/03/23 11:41:13;;;;;;;;;;;;;;;17.04;46.11;94926.00;4995056;28;1151;-75
2023/03/23 11:43:41;;;;;;;;;;;;;;;17.17;46.12;94910.47;4994761;28;1392;-73
2023/03/23 11:46:33;;;;;;;;;;;;;;;17.31;45.73;94909.66;4995448;28;1140;-74
2023/03/23 11:49:02;;;;;;;;;;;;;;;17.41;43.12;94911.63;4994135;28;1129;-74
2023/03/23 11:51:32;;;;;;;;;;;;;;;17.38;43.80;94901.28;4996135;28;828;-74
2023/03/23 11:54:05;;;;;;;;;;;;;;;17.30;43.08;94902.50;4995236;28;1203;-76
2023/03/23 11:56:38;;;;;;;;;;;;;;;17.18;42.12;94898.13;4994927;28;1437;-74
2023/03/23 11:59:13;;;;;;;;;;;;;;;17.24;44.36;94906.88;4994801;28;1910;-74
2023/03/23 12:01:47;;;;;;;;;;;;;;;17.26;43.67;94908.06;4995219;28;1082;-74
2023/03/23 12:04:36;;;;;;;;;;;;;;;17.38;43.21;94900.50;4994344;28;1127;-74
2023/03/23 12:07:09;;;;;;;;;;;;;;;17.60;42.28;94901.25;4924373;29;1187;-73
2023/03/23 12:09:42;;;;;;;;;;;;;;;17.71;42.57;94897.22;4956935;28;985;-73
2023/03/23 12:12:16;;;;;;;;;;;;;;;17.84;41.59;94900.41;4956613;28;1110;-74
2023/03/23 12:14:45;;;;;;;;;;;;;;;17.97;41.81;94895.16;4955779;29;1110;-74
2023/03/23 12:17:19;;;;;;;;;;;;;;;18.13;40.60;94889.13;4956209;29;1252;-74
2023/03/23 12:19:50;;;;;;;;;;;;;;;18.08;39.37;94897.91;4956248;29;1991;-74
2023/03/23 12:22:25;;;;;;;;;;;;;;;17.99;41.11;94893.56;4956769;28;1171;-74
2023/03/23 12:25:01;;;;;;;;;;;;;;;18.13;41.60;94898.28;4960439;29;1051;-73
2023/03/23 12:27:36;;;;;;;;;;;;;;;18.23;41.41;94894.66;4959624;29;1044;-73
2023/03/23 12:30:13;;;;;;;;;;;;;;;18.20;39.77;94889.88;4960382;28;1299;-74
2023/03/23 12:32:44;;;;;;;;;;;;;;;18.23;39.60;94879.91;4959711;29;1274;-73
2023/03/23 12:35:16;;;;;;;;;;;;;;;18.41;41.09;94885.38;4960355;28;1118;-74
2023/03/23 12:37:50;;;;;;;;;;;;;;;18.45;39.78;94880.59;4961119;28;1983;-73
2023/03/23 12:40:25;;;;;;;;;;;;;;;18.47;41.04;94878.16;4960703;28;999;-73
2023/03/23 12:42:58;;;;;;;;;;;;;;;18.44;38.51;94873.38;4960504;28;1221;-74
2023/03/23 12:45:38;;;;;;;;;;;;;;;18.58;39.99;94866.94;4959151;29;1079;-73
2023/03/23 12:48:06;;;;;;;;;;;;;;;18.67;39.40;94872.84;4960502;28;808;-73
2023/03/23 12:50:37;;;;;;;;;;;;;;;18.71;37.67;94870.84;4959516;29;1235;-73
2023/03/23 12:53:05;;;;;;;;;;;;;;;18.75;38.85;94866.03;4960453;28;1160;-74
2023/03/23 12:55:36;;;;;;;;;;;;;;;18.84;38.88;94869.16;4960560;28;1091;-74
2023/03/23 12:58:08;;;;;;;;;;;;;;;18.97;38.70;94864.66;4959460;29;1879;-74
2023/03/23 13:00:50;;;;;;;;;;;;;;;19.09;38.64;94863.34;4960533;28;1023;-73
2023/03/23 13:03:26;;;;;;;;;;;;;;;19.00;38.46;94858.25;4959567;29;1179;-74
2023/03/23 13:05:56;;;;;;;;;;;;;;;19.08;38.12;94866.56;4985437;28;1332;-73
2023/03/23 13:08:24;;;;;;;;;;;;;;;19.09;36.79;94852.16;4998519;28;1279;-73
2023/03/23 13:10:53;;;;;;;;;;;;;;;19.24;37.45;94852.81;4998360;28;1200;-74
2023/03/23 13:13:26;;;;;;;;;;;;;;;19.28;36.35;94853.63;4982225;28;1114;-73
2023/03/23 13:16:01;;;;;;;;;;;;;;;19.01;37.63;94853.44;4998879;28;979;-74
2023/03/23 13:18:37;;;;;;;;;;;;;;;19.01;37.70;94847.84;4998395;28;1902;-74
2023/03/23 13:21:32;;;;;;;;;;;;;;;18.79;36.97;94846.47;4998345;28;1098;-74
2023/03/23 13:24:01;;;;;;;;;;;;;;;18.89;38.15;94842.78;4998582;28;1167;-74